Time;durP1;ratioP1;P1;durP2;ratioP2;P2;SDS_P1;SDS_P2;PMS_P1;PMS_P2;Temp;Humidity;BMP_temperature;BMP_pressure;BME280_temperature;BME280_humidity;BME280_pressure;Samples;Min_cycle;Max_cycle;Signal;HPM_P1;HPM_P2
2024/01/05 00:00:14;;;;;;;12.10;2.78;;;;;;;9.99;72.19;99853.22;5157275;27;20139;-74
2024/01/05 00:02:42;;;;;;;6.05;2.40;;;;;;;10.00;72.19;99854.84;5150569;27;20403;-73
2024/01/05 00:05:10;;;;;;;9.57;3.40;;;;;;;10.00;72.31;99852.16;5159680;27;20058;-73
2024/01/05 00:07:38;;;;;;;9.90;2.90;;;;;;;10.01;72.12;99844.91;5162127;27;20073;-73
2024/01/05 00:10:08;;;;;;;8.65;2.65;;;;;;;10.02;72.09;99843.88;5158167;27;20059;-74
2024/01/05 00:12:36;;;;;;;10.07;3.08;;;;;;;10.01;72.25;99842.22;5147767;27;20067;-74
2024/01/05 00:15:04;;;;;;;7.93;3.42;;;;;;;10.00;72.35;99837.91;5151031;27;20072;-74
2024/01/05 00:17:32;;;;;;;6.68;2.22;;;;;;;10.00;72.28;99837.91;5143913;27;20054;-73
2024/01/05 00:20:00;;;;;;;10.45;2.83;;;;;;;10.00;72.27;99835.22;5130396;27;20070;-73
2024/01/05 00:22:28;;;;;;;9.35;3.20;;;;;;;9.99;72.33;99829.06;5139939;27;20047;-73
2024/01/05 00:24:55;;;;;;;8.73;2.20;;;;;;;9.99;72.34;99829.06;5146528;27;20324;-74
2024/01/05 00:27:25;;;;;;;13.38;3.35;;;;;;;9.99;72.36;99826.38;5139869;27;20055;-74
2024/01/05 00:29:53;;;;;;;7.65;2.60;;;;;;;9.98;72.29;99826.63;5148161;27;20280;-73
2024/01/05 00:32:20;;;;;;;11.10;2.97;;;;;;;10.00;72.35;99822.63;5139747;27;20552;-74
2024/01/05 00:34:48;;;;;;;10.43;2.50;;;;;;;10.00;72.37;99813.75;5139616;27;20043;-73
2024/01/05 00:37:16;;;;;;;7.18;2.15;;;;;;;9.99;72.29;99817.50;5145023;27;20085;-73
2024/01/05 00:39:44;;;;;;;6.75;2.30;;;;;;;9.99;72.41;99817.50;5142816;27;20099;-73
2024/01/05 00:42:12;;;;;;;9.60;2.78;;;;;;;9.97;72.52;99809.69;5137562;27;20135;-72
2024/01/05 00:44:42;;;;;;;10.98;3.90;;;;;;;9.97;72.77;99801.66;5141998;27;20051;-73
2024/01/05 00:47:09;;;;;;;11.35;2.38;;;;;;;9.98;72.42;99802.47;5151709;27;20447;-72
2024/01/05 00:49:38;;;;;;;9.35;2.72;;;;;;;9.99;72.34;99809.44;5150733;27;20111;-72
2024/01/05 00:52:06;;;;;;;5.10;1.80;;;;;;;9.99;72.82;99804.91;5147440;27;20103;-71
2024/01/05 00:54:34;;;;;;;8.27;2.10;;;;;;;9.99;72.36;99793.34;5144494;27;20076;-73
2024/01/05 00:57:02;;;;;;;7.82;2.30;;;;;;;9.98;72.65;99789.03;5132202;27;20043;-74
2024/01/05 00:59:30;;;;;;;6.05;2.30;;;;;;;9.99;72.60;99787.97;5135450;27;20059;-74
2024/01/05 01:01:59;;;;;;;10.18;2.72;;;;;;;9.98;72.69;99784.47;5138907;27;20078;-74
2024/01/05 01:04:27;;;;;;;9.15;2.50;;;;;;;9.98;72.71;99776.44;5135951;27;20055;-72
2024/01/05 01:06:55;;;;;;;9.82;2.20;;;;;;;9.98;72.78;99781.78;5133580;27;20050;-73
2024/01/05 01:09:22;;;;;;;10.52;3.17;;;;;;;9.97;72.62;99779.34;5144585;27;20088;-73
2024/01/05 01:11:51;;;;;;;9.27;3.47;;;;;;;9.98;72.77;99776.44;5130432;27;20112;-73
2024/01/05 01:14:19;;;;;;;9.60;2.75;;;;;;;9.97;72.83;99777.47;5142634;27;20055;-72
2024/01/05 01:16:47;;;;;;;6.70;3.22;;;;;;;9.98;72.77;99772.94;5131719;27;20056;-72
2024/01/05 01:19:16;;;;;;;8.90;2.58;;;;;;;9.98;72.77;99775.63;5135931;27;20040;-72
2024/01/05 01:21:44;;;;;;;8.32;2.60;;;;;;;9.97;72.79;99769.44;5131105;27;20053;-71
2024/01/05 01:24:12;;;;;;;13.23;2.90;;;;;;;9.97;72.64;99763.25;5141953;27;20054;-72
2024/01/05 01:26:39;;;;;;;5.13;2.08;;;;;;;9.97;72.79;99760.56;5132619;27;20039;-73
2024/01/05 01:29:08;;;;;;;8.43;2.60;;;;;;;9.96;72.86;99759.75;5143908;27;20068;-73
2024/01/05 01:31:36;;;;;;;9.57;2.70;;;;;;;9.97;72.83;99758.69;5139099;27;20069;-72
2024/01/05 01:34:05;;;;;;;9.68;2.53;;;;;;;9.98;72.64;99752.28;5144028;27;20442;-73
2024/01/05 01:36:34;;;;;;;6.15;1.95;;;;;;;9.99;72.66;99753.91;5141859;27;20515;-72
2024/01/05 01:39:04;;;;;;;6.85;2.00;;;;;;;10.00;72.81;99750.16;5147358;27;20065;-73
2024/01/05 01:41:32;;;;;;;7.20;2.67;;;;;;;10.00;72.73;99743.97;5142562;27;20061;-72
2024/01/05 01:44:00;;;;;;;16.88;3.42;;;;;;;9.99;72.78;99745.03;5141152;27;20050;-73
2024/01/05 01:46:29;;;;;;;9.43;3.38;;;;;;;9.99;72.94;99742.34;5133363;27;20051;-72
2024/01/05 01:48:57;;;;;;;9.77;2.38;;;;;;;9.98;72.80;99735.34;5135391;27;20046;-72
2024/01/05 01:51:25;;;;;;;9.93;2.88;;;;;;;9.99;72.66;99731.59;5138823;27;20528;-73
2024/01/05 01:53:54;;;;;;;7.10;2.22;;;;;;;9.98;72.52;99724.63;5145168;27;20049;-73
2024/01/05 01:56:22;;;;;;;6.20;1.65;;;;;;;9.99;72.84;99724.38;5143513;27;20070;-73
2024/01/05 01:58:50;;;;;;;9.95;3.05;;;;;;;10.00;72.98;99719.81;5140192;27;20064;-72
2024/01/05 02:01:18;;;;;;;6.18;2.03;;;;;;;9.98;72.77;99711.19;5141569;27;20142;-74
2024/01/05 02:03:46;;;;;;;7.72;2.33;;;;;;;9.98;72.72;99705.81;5139047;27;20043;-72
2024/01/05 02:06:14;;;;;;;7.05;2.00;;;;;;;9.97;72.59;99710.38;5135498;27;20047;-73
2024/01/05 02:08:44;;;;;;;9.75;2.78;;;;;;;9.98;72.67;99697.78;5135081;27;20112;-72
2024/01/05 02:11:13;;;;;;;6.75;2.53;;;;;;;9.97;72.70;99690.78;5136762;27;20055;-72
2024/01/05 02:13:41;;;;;;;7.43;1.95;;;;;;;9.98;72.83;99695.09;5140204;27;20096;-73
2024/01/05 02:16:09;;;;;;;10.55;2.85;;;;;;;9.97;72.90;99682.72;5141978;27;20055;-72
2024/01/05 02:18:37;;;;;;;6.03;2.00;;;;;;;9.95;72.66;99677.63;5131266;27;20039;-72
2024/01/05 02:21:09;;;;;;;8.98;3.08;;;;;;;9.91;72.69;99670.28;5152542;27;20067;-72
2024/01/05 02:23:38;;;;;;;5.60;1.73;;;;;;;9.93;72.86;99670.88;5141081;27;20043;-72
2024/01/05 02:26:06;;;;;;;6.95;1.90;;;;;;;9.93;72.90;99677.03;5144347;27;20510;-72
2024/01/05 02:28:38;;;;;;;5.18;1.80;;;;;;;9.91;72.93;99671.09;5143972;27;20084;-72
2024/01/05 02:31:06;;;;;;;7.13;2.05;;;;;;;9.91;72.90;99663.06;5151182;27;20043;-70
2024/01/05 02:33:34;;;;;;;4.88;1.70;;;;;;;9.91;72.71;99668.44;5136736;27;20555;-72
2024/01/05 02:36:02;;;;;;;7.65;1.75;;;;;;;9.92;72.80;99662.00;5144636;27;20044;-73
2024/01/05 02:38:30;;;;;;;9.88;2.40;;;;;;;9.92;72.82;99658.50;5140684;27;20126;-73
2024/01/05 02:40:59;;;;;;;5.97;1.80;;;;;;;9.91;72.78;99659.56;5132377;27;20043;-73
2024/01/05 02:43:27;;;;;;;9.90;2.00;;;;;;;9.90;72.72;99647.19;5140342;27;20465;-73
2024/01/05 02:45:55;;;;;;;10.00;2.00;;;;;;;9.89;72.78;99657.13;5139626;27;20051;-73
2024/01/05 02:48:23;;;;;;;5.55;1.50;;;;;;;9.88;72.83;99647.44;5140089;27;20078;-72
2024/01/05 02:50:50;;;;;;;7.63;2.38;;;;;;;9.89;72.71;99637.53;5141582;27;20065;-73
2024/01/05 02:53:18;;;;;;;6.38;2.33;;;;;;;9.89;72.74;99643.72;5142202;27;20096;-73
2024/01/05 02:55:46;;;;;;;8.80;2.25;;;;;;;9.85;72.78;99633.72;5146060;27;20043;-73
2024/01/05 02:58:15;;;;;;;7.13;2.30;;;;;;;9.88;72.72;99636.72;5149622;27;20050;-73
2024/01/05 03:00:43;;;;;;;9.20;1.70;;;;;;;9.89;72.67;99630.28;5140499;27;20039;-73
2024/01/05 03:03:11;;;;;;;3.72;1.30;;;;;;;9.88;72.65;99627.84;5142759;27;20046;-73
2024/01/05 03:05:40;;;;;;;8.13;1.98;;;;;;;9.85;72.47;99620.28;5139277;27;20442;-72
2024/01/05 03:08:09;;;;;;;5.22;1.90;;;;;;;9.89;72.65;99618.75;5143605;27;20134;-73
2024/01/05 03:10:37;;;;;;;7.43;2.00;;;;;;;9.88;72.65;99617.94;5132998;27;20043;-73
2024/01/05 03:13:05;;;;;;;6.25;1.83;;;;;;;9.87;72.71;99621.69;5140633;27;20127;-73
2024/01/05 03:15:34;;;;;;;6.53;1.45;;;;;;;9.86;72.42;99614.69;5137755;27;20040;-73
2024/01/05 03:18:03;;;;;;;8.80;1.83;;;;;;;9.87;72.52;99615.50;5139295;27;20125;-73
2024/01/05 03:20:31;;;;;;;4.80;1.50;;;;;;;9.85;72.79;99596.16;5135573;27;20039;-72
2024/01/05 03:22:58;;;;;;;6.28;2.10;;;;;;;9.87;72.86;99610.13;5139527;27;20435;-73
2024/01/05 03:25:26;;;;;;;4.15;1.60;;;;;;;9.87;72.48;99599.38;5145848;27;20058;-72
2024/01/05 03:27:54;;;;;;;5.78;2.00;;;;;;;9.88;72.43;99595.66;5144694;27;20319;-73
2024/01/05 03:30:22;;;;;;;6.88;1.58;;;;;;;9.86;72.50;99589.72;5151852;27;20067;-72
2024/01/05 03:32:51;;;;;;;7.63;2.90;;;;;;;9.86;72.61;99593.22;5142627;27;20070;-73
2024/01/05 03:35:19;;;;;;;4.70;1.50;;;;;;;9.86;72.25;99587.03;5134340;27;20143;-72
2024/01/05 03:37:48;;;;;;;5.85;1.95;;;;;;;9.85;72.41;99583.53;5149223;27;20038;-73
2024/01/05 03:40:16;;;;;;;5.18;2.13;;;;;;;9.86;72.53;99587.03;5153842;27;20047;-73
2024/01/05 03:42:43;;;;;;;5.47;1.60;;;;;;;9.81;72.72;99569.00;5139312;27;20051;-72
2024/01/05 03:45:11;;;;;;;6.13;1.40;;;;;;;9.85;72.60;99572.00;5149728;27;20076;-75
2024/01/05 03:47:39;;;;;;;5.18;1.42;;;;;;;9.84;72.67;99570.38;5145611;27;20345;-74
2024/01/05 03:50:09;;;;;;;5.80;2.13;;;;;;;9.84;72.70;99570.38;5148241;27;20039;-74
2024/01/05 03:52:37;;;;;;;6.65;1.63;;;;;;;9.85;72.47;99561.25;5153177;27;20150;-73
2024/01/05 03:55:05;;;;;;;4.82;1.52;;;;;;;9.85;72.48;99561.25;5139555;27;20050;-73
2024/01/05 03:57:33;;;;;;;4.70;1.55;;;;;;;9.85;72.52;99554.03;5148569;27;20073;-73
2024/01/05 04:00:01;;;;;;;4.03;1.20;;;;;;;9.85;72.11;99554.03;5138478;27;20043;-72
2024/01/05 04:02:29;;;;;;;5.38;1.27;;;;;;;9.85;72.50;99540.59;5145564;27;20041;-73
2024/01/05 04:04:57;;;;;;;3.40;1.42;;;;;;;9.86;72.19;99541.41;5149165;27;20062;-73
2024/01/05 04:07:26;;;;;;;5.60;1.55;;;;;;;9.86;72.40;99536.06;5138694;27;20111;-71
2024/01/05 04:09:53;;;;;;;7.55;1.55;;;;;;;9.85;72.28;99529.06;5150305;27;20128;-72
2024/01/05 04:12:21;;;;;;;3.78;1.63;;;;;;;9.85;72.26;99527.19;5160204;27;20085;-73
2024/01/05 04:14:49;;;;;;;2.97;1.40;;;;;;;9.83;72.41;99513.22;5146315;27;20130;-72
2024/01/05 04:17:17;;;;;;;5.18;1.50;;;;;;;9.84;72.30;99520.19;5149585;27;20043;-73
2024/01/05 04:19:45;;;;;;;6.57;1.80;;;;;;;9.83;72.35;99515.91;5154116;27;20087;-72
2024/01/05 04:22:13;;;;;;;3.17;1.20;;;;;;;9.84;72.19;99511.34;5152513;27;20118;-72
2024/01/05 04:24:42;;;;;;;5.47;1.77;;;;;;;9.85;72.38;99504.91;5140443;27;20071;-72
2024/01/05 04:27:09;;;;;;;7.60;1.35;;;;;;;9.83;72.46;99504.34;5157904;27;20062;-71
2024/01/05 04:29:38;;;;;;;7.65;1.60;;;;;;;9.84;72.20;99497.91;5152714;27;20127;-71
2024/01/05 04:32:06;;;;;;;5.53;1.48;;;;;;;9.83;71.99;99499.78;5155861;27;20047;-72
2024/01/05 04:34:34;;;;;;;3.28;1.13;;;;;;;9.84;72.11;99487.19;5151164;27;20051;-72
2024/01/05 04:37:02;;;;;;;4.32;1.40;;;;;;;9.83;72.28;99483.69;5142985;27;20047;-72
2024/01/05 04:39:31;;;;;;;4.38;1.40;;;;;;;9.83;72.20;99474.84;5153758;27;20053;-73
2024/01/05 04:42:00;;;;;;;7.50;1.60;;;;;;;9.83;72.07;99482.88;5151626;27;20082;-73
2024/01/05 04:44:28;;;;;;;5.45;1.42;;;;;;;9.72;72.10;99458.63;5147202;27;20043;-73
2024/01/05 04:46:56;;;;;;;6.55;1.58;;;;;;;9.82;72.23;99460.59;5148758;27;20043;-74
2024/01/05 04:49:25;;;;;;;4.38;1.42;;;;;;;9.79;72.02;99475.34;5147984;27;20051;-72
2024/01/05 04:51:53;;;;;;;4.65;1.40;;;;;;;9.79;72.07;99471.84;5150915;27;20099;-72
2024/01/05 04:54:21;;;;;;;7.47;1.42;;;;;;;9.78;72.21;99465.66;5141932;27;20078;-73
2024/01/05 04:56:49;;;;;;;6.72;1.65;;;;;;;9.78;72.10;99460.28;5149068;27;20065;-72
2024/01/05 04:59:18;;;;;;;5.00;1.75;;;;;;;9.77;71.96;99458.69;5152021;27;20139;-72
2024/01/05 05:01:46;;;;;;;4.47;1.27;;;;;;;9.78;71.84;99454.94;5157501;27;20129;-72
2024/01/05 05:04:16;;;;;;;4.38;1.42;;;;;;;9.78;71.96;99448.75;5154864;27;20073;-72
2024/01/05 05:06:44;;;;;;;3.58;1.45;;;;;;;9.77;71.97;99445.25;5149115;27;20042;-72
2024/01/05 05:09:12;;;;;;;5.00;1.67;;;;;;;9.79;72.20;99442.31;5147271;27;20081;-71
2024/01/05 05:11:40;;;;;;;3.85;1.27;;;;;;;9.81;71.89;99444.75;5147768;27;20055;-73
2024/01/05 05:14:08;;;;;;;5.72;1.60;;;;;;;9.79;71.93;99445.00;5150184;27;20392;-71
2024/01/05 05:16:39;;;;;;;3.85;1.25;;;;;;;9.78;71.73;99438.03;5148672;27;20039;-71
2024/01/05 05:19:07;;;;;;;3.85;1.60;;;;;;;9.78;71.78;99440.69;5148631;27;20096;-72
2024/01/05 05:21:35;;;;;;;2.33;1.10;;;;;;;9.77;71.96;99447.13;5158069;27;20047;-72
2024/01/05 05:24:03;;;;;;;4.60;1.75;;;;;;;9.76;71.67;99434.78;5149485;27;20050;-73
2024/01/05 05:26:31;;;;;;;3.50;1.17;;;;;;;9.74;72.15;99432.34;5140405;27;20050;-72
2024/01/05 05:28:59;;;;;;;4.25;1.60;;;;;;;9.75;71.92;99430.47;5146815;27;20040;-73
2024/01/05 05:31:27;;;;;;;6.93;1.40;;;;;;;9.75;71.63;99431.28;5146824;27;20128;-72
2024/01/05 05:33:56;;;;;;;5.15;1.40;;;;;;;9.75;72.02;99442.03;5145619;27;20078;-72
2024/01/05 05:36:24;;;;;;;6.32;1.35;;;;;;;9.74;71.79;99437.72;5150134;27;20137;-72
2024/01/05 05:38:52;;;;;;;4.78;1.17;;;;;;;9.74;71.81;99440.41;5147358;27;20043;-72
2024/01/05 05:41:19;;;;;;;4.53;1.30;;;;;;;9.72;71.93;99442.53;5143885;27;20146;-72
2024/01/05 05:43:47;;;;;;;6.25;1.33;;;;;;;9.74;71.73;99439.59;5144387;27;20047;-73
2024/01/05 05:46:15;;;;;;;4.03;1.60;;;;;;;9.74;71.77;99443.06;5143856;27;20055;-72
2024/01/05 05:48:43;;;;;;;3.50;1.05;;;;;;;9.74;71.58;99443.06;5146168;27;20039;-72
2024/01/05 05:51:12;;;;;;;4.57;1.55;;;;;;;9.74;71.87;99444.94;5152592;27;20591;-72
2024/01/05 05:53:40;;;;;;;3.88;1.00;;;;;;;9.75;71.75;99441.22;5152682;27;20046;-72
2024/01/05 05:56:08;;;;;;;2.65;1.30;;;;;;;9.75;71.97;99446.56;5153233;27;20039;-72
2024/01/05 05:58:36;;;;;;;1.60;1.00;;;;;;;9.76;71.85;99449.00;5142977;27;20091;-71
2024/01/05 06:01:05;;;;;;;4.43;1.35;;;;;;;9.76;71.37;99449.00;5154336;27;20046;-71
2024/01/05 06:03:33;;;;;;;6.63;1.42;;;;;;;9.74;71.24;99443.06;5142774;27;20083;-73
2024/01/05 06:06:03;;;;;;;5.25;1.17;;;;;;;9.73;70.86;99441.47;4790270;27;9999960;-72
2024/01/05 06:08:32;;;;;;;2.25;1.20;;;;;;;9.72;70.65;99445.19;5138340;27;20047;-71
2024/01/05 06:11:00;;;;;;;5.63;1.35;;;;;;;9.72;70.57;99455.13;5143316;27;20083;-71
2024/01/05 06:13:28;;;;;;;5.13;0.90;;;;;;;9.71;70.45;99440.91;5139513;27;20050;-71
2024/01/05 06:15:56;;;;;;;2.78;0.80;;;;;;;9.70;70.52;99436.59;5152580;27;20579;-72
2024/01/05 06:18:23;;;;;;;2.40;0.95;;;;;;;9.73;70.88;99451.38;5147793;27;20095;-72
2024/01/05 06:20:51;;;;;;;3.35;0.90;;;;;;;9.71;70.35;99435.53;5145793;27;20050;-71
2024/01/05 06:23:19;;;;;;;6.15;0.93;;;;;;;9.71;69.89;99442.78;5141812;27;20076;-72
2024/01/05 06:25:48;;;;;;;3.40;0.88;;;;;;;9.69;70.47;99431.47;5144736;27;20054;-72
2024/01/05 06:28:16;;;;;;;6.22;0.90;;;;;;;9.71;70.09;99440.91;5137875;27;20308;-72
2024/01/05 06:30:44;;;;;;;1.77;0.90;;;;;;;9.69;70.21;99439.53;5144042;27;20433;-72
2024/01/05 06:33:12;;;;;;;2.00;0.57;;;;;;;9.71;70.18;99440.91;5138023;27;20074;-72
2024/01/05 06:35:40;;;;;;;2.00;0.70;;;;;;;9.68;69.84;99435.22;5138018;27;20040;-72
2024/01/05 06:38:08;;;;;;;1.42;0.60;;;;;;;9.72;69.87;99445.19;5128818;27;20332;-71
2024/01/05 06:40:35;;;;;;;1.27;0.65;;;;;;;9.72;69.53;99437.16;5131806;27;20072;-72
2024/01/05 06:43:05;;;;;;;1.20;0.70;;;;;;;9.86;69.90;99436.75;5135525;27;20051;-73
2024/01/05 06:45:32;;;;;;;2.08;1.00;;;;;;;9.92;69.22;99447.31;5135060;27;20541;-72
2024/01/05 06:48:00;;;;;;;1.98;0.80;;;;;;;9.85;69.08;99453.94;5136272;27;20135;-72
2024/01/05 06:50:29;;;;;;;5.53;0.57;;;;;;;9.81;69.32;99450.13;5137659;27;20043;-73
2024/01/05 06:52:59;;;;;;;1.02;0.47;;;;;;;9.81;69.79;99452.81;5139022;27;20070;-72
2024/01/05 06:55:27;;;;;;;1.00;0.70;;;;;;;10.13;70.14;99452.88;5142459;27;20044;-72
2024/01/05 06:57:55;;;;;;;1.15;0.77;;;;;;;10.14;68.59;99449.16;5147006;27;20131;-72
2024/01/05 07:00:24;;;;;;;2.15;0.60;;;;;;;10.09;68.35;99447.22;5143664;27;20067;-72
2024/01/05 07:02:52;;;;;;;1.25;0.70;;;;;;;10.11;68.99;99448.59;5138193;27;20052;-73
2024/01/05 07:05:20;;;;;;;0.90;0.50;;;;;;;10.16;69.70;99450.50;5141305;27;20054;-74
2024/01/05 07:07:48;;;;;;;1.35;0.60;;;;;;;10.20;69.23;99442.78;5143209;27;20133;-71
2024/01/05 07:10:16;;;;;;;4.65;0.55;;;;;;;10.24;68.03;99450.09;5142672;27;20465;-72
2024/01/05 07:12:44;;;;;;;1.67;0.98;;;;;;;10.25;68.69;99442.84;5141221;27;20043;-70
2024/01/05 07:15:12;;;;;;;1.30;0.80;;;;;;;10.40;68.38;99451.81;5140027;27;20053;-73
2024/01/05 07:17:41;;;;;;;1.40;0.52;;;;;;;10.39;67.98;99457.47;5137434;27;20058;-76
2024/01/05 07:20:11;;;;;;;2.55;0.63;;;;;;;10.56;69.38;99435.84;5140213;27;20043;-74
2024/01/05 07:22:40;;;;;;;2.03;0.60;;;;;;;10.59;68.08;99444.19;5142973;27;20519;-71
2024/01/05 07:25:09;;;;;;;2.95;0.60;;;;;;;10.29;67.80;99452.81;5145680;27;20116;-71
2024/01/05 07:27:37;;;;;;;1.02;0.50;;;;;;;10.25;68.05;99456.25;5141412;27;20142;-71
2024/01/05 07:30:06;;;;;;;1.13;0.40;;;;;;;10.24;67.93;99460.00;5147950;27;20114;-74
2024/01/05 07:32:34;;;;;;;2.22;0.60;;;;;;;10.14;68.43;99447.28;5142179;27;20426;-69
2024/01/05 07:35:04;;;;;;;1.70;0.68;;;;;;;10.22;69.14;99460.28;5144619;27;20106;-77
2024/01/05 07:37:32;;;;;;;2.53;0.60;;;;;;;10.13;68.74;99456.38;5147308;27;20043;-72
2024/01/05 07:40:00;;;;;;;3.72;0.73;;;;;;;9.98;68.51;99461.59;5145268;27;20132;-72
2024/01/05 07:42:28;;;;;;;3.65;0.75;;;;;;;9.96;68.93;99461.03;5067084;27;20109;-73
2024/01/05 07:44:57;;;;;;;1.85;0.80;;;;;;;9.90;68.67;99462.84;5053509;28;20055;-71
2024/01/05 07:47:25;;;;;;;2.80;0.90;;;;;;;9.95;70.06;99472.81;5031988;28;20129;-71
2024/01/05 07:49:53;;;;;;;2.30;0.60;;;;;;;10.07;68.46;99471.63;5036188;27;20088;-71
2024/01/05 07:52:22;;;;;;;2.10;0.52;;;;;;;10.18;68.26;99467.19;5075928;27;20053;-70
2024/01/05 07:54:50;;;;;;;2.17;0.65;;;;;;;9.99;68.65;99482.00;5039242;27;20222;-69
2024/01/05 07:57:18;;;;;;;3.60;0.95;;;;;;;9.96;69.17;99485.19;5044947;27;20106;-69
2024/01/05 07:59:46;;;;;;;2.55;1.67;;;;;;;9.99;69.50;99476.63;5031416;28;20493;-70
2024/01/05 08:02:14;;;;;;;0.82;0.50;;;;;;;10.50;69.61;99463.72;5042364;27;20069;-69
2024/01/05 08:04:41;;;;;;;1.95;0.77;;;;;;;10.15;69.86;99465.00;5037555;27;20106;-68
2024/01/05 08:07:09;;;;;;;2.33;1.30;;;;;;;10.22;69.54;99476.38;5087596;27;20471;-74
2024/01/05 08:09:41;;;;;;;3.45;0.90;;;;;;;10.23;69.48;99469.94;5058377;27;20462;-74
2024/01/05 08:12:09;;;;;;;0.70;0.50;;;;;;;10.33;70.07;99471.91;5083367;27;20114;-74
2024/01/05 08:14:37;;;;;;;1.45;0.60;;;;;;;10.15;68.63;99466.88;5064060;27;20110;-74
2024/01/05 08:17:05;;;;;;;0.95;0.43;;;;;;;10.05;69.15;99475.63;5042296;27;20076;-71
2024/01/05 08:19:33;;;;;;;2.08;0.70;;;;;;;9.97;69.65;99473.38;5100032;27;20053;-72
2024/01/05 08:22:01;;;;;;;1.23;0.73;;;;;;;10.00;69.20;99479.06;5073384;27;20054;-72
2024/01/05 08:24:29;;;;;;;2.85;0.77;;;;;;;9.93;69.27;99472.28;5046851;27;20060;-72
2024/01/05 08:26:58;;;;;;;2.20;1.38;;;;;;;9.86;69.53;99477.00;5040327;27;20135;-73
2024/01/05 08:29:26;;;;;;;1.75;0.50;;;;;;;9.85;69.57;99478.06;5113216;27;20067;-73
2024/01/05 08:31:55;;;;;;;0.82;0.50;;;;;;;9.79;69.29;99480.69;5040537;28;20048;-73
2024/01/05 08:34:23;;;;;;;1.35;0.55;;;;;;;9.77;69.69;99484.69;5040860;28;20049;-72
2024/01/05 08:36:51;;;;;;;0.75;0.60;;;;;;;9.99;70.05;99484.69;5047401;28;20069;-72
2024/01/05 08:39:19;;;;;;;1.63;0.85;;;;;;;9.80;69.35;99486.88;5034031;28;20050;-72
2024/01/05 08:41:47;;;;;;;1.35;0.60;;;;;;;9.77;69.80;99482.00;5075756;27;20086;-71
2024/01/05 08:44:16;;;;;;;1.65;0.95;;;;;;;9.73;69.55;99487.06;5145209;27;20059;-70
2024/01/05 08:46:44;;;;;;;1.77;0.57;;;;;;;9.74;70.06;99495.94;5146183;27;20071;-69
2024/01/05 08:49:14;;;;;;;2.20;0.55;;;;;;;9.86;69.40;99507.34;5149338;27;20071;-73
2024/01/05 08:51:43;;;;;;;4.00;0.60;;;;;;;10.05;68.79;99510.53;5140765;27;20040;-76
2024/01/05 08:54:11;;;;;;;2.35;0.60;;;;;;;10.19;68.35;99508.25;5145864;27;20107;-73
2024/01/05 08:56:39;;;;;;;2.03;0.73;;;;;;;10.32;67.73;99519.44;5144391;27;20055;-72
2024/01/05 08:59:07;;;;;;;1.63;0.57;;;;;;;10.53;67.23;99523.13;5146407;27;20050;-71
2024/01/05 09:01:36;;;;;;;1.30;0.40;;;;;;;10.76;66.28;99524.69;5159159;27;20058;-71
2024/01/05 09:04:10;;;;;;;1.60;0.60;;;;;;;10.81;65.85;99518.53;5148304;27;20053;-68
2024/01/05 09:06:38;;;;;;;1.13;0.50;;;;;;;10.80;65.56;99522.28;5153155;27;20050;-72
2024/01/05 09:09:06;;;;;;;0.57;0.40;;;;;;;10.85;65.51;99533.09;5143433;27;20051;-73
2024/01/05 09:11:34;;;;;;;0.57;0.55;;;;;;;10.90;65.48;99522.38;5146435;27;20073;-74
2024/01/05 09:14:02;;;;;;;1.98;0.60;;;;;;;10.97;65.01;99520.28;5136197;27;20100;-73
2024/01/05 09:16:30;;;;;;;4.15;0.90;;;;;;;11.17;64.37;99523.13;5143664;27;20051;-74
2024/01/05 09:18:59;;;;;;;2.25;0.55;;;;;;;11.23;64.10;99538.22;5146424;27;20055;-74
2024/01/05 09:21:28;;;;;;;0.90;0.55;;;;;;;11.32;63.50;99539.38;5147109;27;20047;-74
2024/01/05 09:23:55;;;;;;;0.98;0.45;;;;;;;11.28;64.48;99524.81;5141051;27;20059;-74
2024/01/05 09:26:23;;;;;;;1.73;0.43;;;;;;;11.21;63.89;99526.94;5138851;27;20097;-74
2024/01/05 09:28:51;;;;;;;1.65;0.70;;;;;;;11.00;64.69;99531.34;5135904;27;20047;-74
2024/01/05 09:31:19;;;;;;;1.30;0.50;;;;;;;10.76;65.32;99524.69;5145542;27;20047;-74
2024/01/05 09:33:49;;;;;;;1.15;1.05;;;;;;;10.70;65.56;99539.13;5146187;27;20126;-73
2024/01/05 09:36:19;;;;;;;2.92;0.80;;;;;;;10.56;66.14;99541.41;5142039;27;20047;-74
2024/01/05 09:38:47;;;;;;;1.20;0.68;;;;;;;10.50;66.91;99539.75;5150458;27;20072;-74
2024/01/05 09:41:15;;;;;;;0.70;0.55;;;;;;;10.43;66.65;99549.88;5143488;27;20055;-74
2024/01/05 09:43:44;;;;;;;0.65;0.43;;;;;;;10.29;67.26;99541.44;5134322;27;20116;-73
2024/01/05 09:46:12;;;;;;;1.65;0.50;;;;;;;10.34;67.29;99551.41;5143927;27;20051;-70
2024/01/05 09:48:41;;;;;;;0.70;0.45;;;;;;;10.43;67.08;99545.31;5137931;27;20076;-70
2024/01/05 09:51:20;;;;;;;2.55;0.60;;;;;;;10.60;66.82;99541.72;5143370;27;20051;-71
2024/01/05 09:53:48;;;;;;;1.27;0.60;;;;;;;10.81;65.77;99548.91;5143174;27;20043;-71
2024/01/05 09:56:16;;;;;;;1.15;0.60;;;;;;;10.92;65.34;99560.56;5140521;27;20081;-73
2024/01/05 09:58:46;;;;;;;1.02;0.50;;;;;;;11.03;64.82;99564.97;5141699;27;20047;-75
2024/01/05 10:01:22;;;;;;;1.08;0.60;;;;;;;11.18;64.33;99553.53;5138997;27;20067;-74
2024/01/05 10:03:54;;;;;;;1.53;0.60;;;;;;;11.33;64.20;99553.63;5141531;27;20203;-75
2024/01/05 10:06:25;;;;;;;1.38;0.68;;;;;;;11.47;63.87;99544.03;5129248;27;20324;-74
2024/01/05 10:08:54;;;;;;;1.75;0.73;;;;;;;11.54;63.25;99541.13;5142554;27;20070;-72
2024/01/05 10:11:30;;;;;;;1.30;0.68;;;;;;;11.53;62.81;99540.31;5143624;27;20081;-71
2024/01/05 10:14:06;;;;;;;3.45;0.77;;;;;;;11.56;62.74;99549.75;5134970;27;20047;-73
2024/01/05 10:16:38;;;;;;;2.25;0.80;;;;;;;11.45;63.33;99556.94;5141922;27;20072;-75
2024/01/05 10:19:14;;;;;;;0.93;0.60;;;;;;;11.31;64.08;99545.00;5142018;27;20075;-75
2024/01/05 10:21:45;;;;;;;1.20;0.80;;;;;;;11.14;64.64;99552.41;5143712;27;20047;-74
2024/01/05 10:24:21;;;;;;;1.17;0.70;;;;;;;10.95;64.87;99547.44;5140733;27;20054;-73
2024/01/05 10:27:05;;;;;;;1.27;0.70;;;;;;;10.86;65.10;99550.84;5140868;27;20832;-72
2024/01/05 10:29:35;;;;;;;3.47;0.88;;;;;;;10.66;65.69;99544.19;5133660;27;20059;-71
2024/01/05 10:32:14;;;;;;;2.17;0.70;;;;;;;10.61;66.15;99538.78;5143392;27;20047;-69
2024/01/05 10:34:44;;;;;;;5.72;1.33;;;;;;;10.66;65.94;99549.56;5144489;27;20046;-66
2024/01/05 10:37:14;;;;;;;2.33;0.80;;;;;;;10.83;65.61;99549.47;5149120;27;20096;-71
2024/01/05 10:39:46;;;;;;;0.60;0.55;;;;;;;10.93;65.53;99552.25;5161569;27;20046;-72
2024/01/05 10:42:18;;;;;;;2.95;1.00;;;;;;;11.16;64.50;99551.09;5134312;27;20066;-71
2024/01/05 10:44:47;;;;;;;0.60;0.60;;;;;;;11.26;64.06;99553.03;5145624;27;20043;-71
2024/01/05 10:47:15;;;;;;;1.92;0.65;;;;;;;11.40;63.69;99559.59;5144262;27;20066;-71
2024/01/05 10:49:48;;;;;;;2.03;0.85;;;;;;;11.54;62.96;99551.88;5141679;27;20047;-71
2024/01/05 10:52:19;;;;;;;2.63;0.90;;;;;;;11.76;62.45;99563.31;5152496;27;20054;-71
2024/01/05 10:54:48;;;;;;;2.45;1.20;;;;;;;11.74;62.62;99552.00;5144310;27;20039;-70
2024/01/05 10:57:18;;;;;;;1.95;0.85;;;;;;;11.87;62.30;99561.53;5148144;27;20047;-74
2024/01/05 10:59:46;;;;;;;2.60;0.77;;;;;;;11.83;61.79;99555.84;5145016;27;20096;-72
2024/01/05 11:02:20;;;;;;;0.70;0.55;;;;;;;11.55;62.82;99556.19;5146659;27;20050;-70
2024/01/05 11:04:57;;;;;;;2.58;0.90;;;;;;;11.35;63.34;99556.88;5145290;27;20051;-76
2024/01/05 11:07:31;;;;;;;3.88;0.90;;;;;;;11.13;63.91;99565.03;5148141;27;20043;-68
2024/01/05 11:10:19;;;;;;;1.38;0.70;;;;;;;10.97;64.48;99563.28;5149362;27;20043;-68
2024/01/05 11:13:07;;;;;;;3.13;1.08;;;;;;;10.92;64.85;99572.13;5142384;27;20122;-76
2024/01/05 11:15:51;;;;;;;1.17;0.88;;;;;;;10.85;65.19;99558.09;5144499;27;20099;-71
2024/01/05 11:18:55;;;;;;;4.70;0.85;;;;;;;10.69;65.47;99559.81;5145813;27;20432;-77
2024/01/05 11:21:33;;;;;;;1.40;0.75;;;;;;;10.58;65.77;99562.66;5133604;27;20047;-72
2024/01/05 11:24:03;;;;;;;3.38;1.10;;;;;;;10.52;65.31;99566.34;5146109;27;20046;-66
2024/01/05 11:26:34;;;;;;;1.83;1.13;;;;;;;10.44;66.27;99563.06;5143204;27;20058;-72
2024/01/05 11:29:02;;;;;;;1.90;0.80;;;;;;;10.39;65.76;99565.72;5141645;27;20070;-73
2024/01/05 11:31:52;;;;;;;2.50;0.80;;;;;;;10.35;66.50;99559.22;5150225;27;20620;-72
2024/01/05 11:34:34;;;;;;;2.40;0.80;;;;;;;10.39;66.90;99573.78;5140496;27;20063;-71
2024/01/05 11:37:04;;;;;;;2.13;0.68;;;;;;;10.34;66.19;99564.84;5143769;27;20046;-73
2024/01/05 11:39:45;;;;;;;0.98;0.47;;;;;;;10.33;66.50;99571.28;5145582;27;20054;-70
2024/01/05 11:42:36;;;;;;;1.13;0.80;;;;;;;10.46;66.28;99562.00;5146918;27;20058;-70
2024/01/05 11:45:11;;;;;;;3.38;0.77;;;;;;;10.59;65.83;99562.41;5130696;27;20054;-71
2024/01/05 11:47:39;;;;;;;4.45;0.98;;;;;;;10.76;65.42;99563.13;5138385;27;20048;-71